Aeroporto :
LOGIN :

Iscrizione | Disclaimer

   EN    FR    IT 

 










Sommario :    VFR   VFR Marginale   IFR   IFR Intensivo   IFR Molto Intensivo
Visibilità : 
Base nubi : 
>= 8 km
>= 3000ft
5 / 8 km
1000 / 3000 ft
1500m / 5 km
500 / 1000 ft
800 / 1500m
200 / 500 ft
< 800m
< 200 ft
Simboli :   Temporali  Nebbia  Neve Forte  Precipitazioni Forti  Vento > 20 kt
SIGMETs :   Varie  Temporali  Ghiacco  Turbolenza  Onda orograficha  Ceneri Vulcaniche






- Altitudine del aeroporto : 184 ft
- Codice IATA : BRU


EBBR - Bruxelles

ULTIMO METAR :
  • 060020Z 35002KT CAVOK 02/01 Q1043 NOSIG

METARs OBSOLETI :
  • 052320Z 05004KT CAVOK 02/01 Q1042 NOSIG
  • 052250Z 03006KT 9999 FEW020 03/01 Q1042 NOSIG
  • 052220Z 01007KT 9999 FEW020 03/01 Q1042 NOSIG

TAF TAF EBBR
Valido dal 06 a 00 ore il 07 a 06 ore UTC


052310Z 0600/0706 01004KT 9000 FEW020
TEMPO 0604/0610 3500 MIFG BR
PROB40
TEMPO 0604/0610 2000 BR BKN004
PROB30
TEMPO 0605/0609 0700 BCFG BKN002
PROB40
TEMPO 0703/0706 2000 MIFG BR
PROB30
TEMPO 0703/0706 0700 BCFG BKN002



MetMap, La meteo Aeronautica in un colpo d'occhio ! - Copyright ORBIFLY Dicembre 2007 - Disclaimer

ORBIFLY MET'MAP TEAM :

Programmazione e sviluppo : Alexandra Zaïnal
Concezione : Baudouin d'Aumeries
Supporto tecnico e logistico : Manuel Goepfert
Aiuto : Marc-Olivier Méhu
Aiuto per la traduzione : Arnaldo La Scala




FONTI E CREDITI :

   NOAA